Time;durP1;ratioP1;P1;durP2;ratioP2;P2;SDS_P1;SDS_P2;PMS_P1;PMS_P2;Temp;Humidity;BMP_temperature;BMP_pressure;BME280_temperature;BME280_humidity;BME280_pressure;Samples;Min_cycle;Max_cycle;Signal;HPM_P1;HPM_P2
2021/09/29 00:02:21;;;;;;;5.95;4.13;;;12.80;90.00;;;;;;5008532;28;20148;-89
2021/09/29 00:04:47;;;;;;;6.90;4.60;;;12.80;89.80;;;;;;5010399;28;20494;-89
2021/09/29 00:07:13;;;;;;;7.38;4.40;;;12.90;89.80;;;;;;4999128;28;20482;-90
2021/09/29 00:09:51;;;;;;;7.13;4.43;;;12.90;89.80;;;;;;4997391;28;20017;-89
2021/09/29 00:12:17;;;;;;;4.57;4.07;;;12.90;89.90;;;;;;4999017;28;20040;-90
2021/09/29 00:14:45;;;;;;;6.28;4.72;;;12.90;89.90;;;;;;4999997;28;20363;-89
2021/09/29 00:17:19;;;;;;;6.13;4.60;;;13.00;90.00;;;;;;5013363;28;20037;-89
2021/09/29 00:19:50;;;;;;;8.02;4.60;;;13.00;90.10;;;;;;5011005;28;20477;-89
2021/09/29 00:22:24;;;;;;;9.52;4.57;;;13.00;90.00;;;;;;5005631;28;20397;-90
2021/09/29 00:24:55;;;;;;;8.02;5.18;;;13.00;90.00;;;;;;5000320;28;20029;-90
2021/09/29 00:27:32;;;;;;;7.30;5.75;;;13.10;90.10;;;;;;5008373;28;20026;-90
2021/09/29 00:30:07;;;;;;;6.40;4.88;;;13.10;90.00;;;;;;4997028;28;20022;-90
2021/09/29 00:32:45;;;;;;;6.72;4.68;;;13.10;90.10;;;;;;5016344;28;20048;-89
2021/09/29 00:35:20;;;;;;;7.63;4.80;;;13.00;90.10;;;;;;5004991;28;20132;-90
2021/09/29 00:37:51;;;;;;;7.20;5.05;;;13.00;90.20;;;;;;5011507;28;20032;-90
2021/09/29 00:40:17;;;;;;;8.60;5.82;;;13.10;90.10;;;;;;5005093;28;20482;-90
2021/09/29 00:42:46;;;;;;;9.07;6.00;;;13.00;90.10;;;;;;5015524;28;20034;-90
2021/09/29 00:45:12;;;;;;;7.25;5.22;;;13.00;90.10;;;;;;5003056;28;20026;-90
2021/09/29 00:47:41;;;;;;;6.72;4.63;;;13.00;90.20;;;;;;5006492;28;20133;-89
2021/09/29 00:50:09;;;;;;;7.00;5.35;;;13.00;90.30;;;;;;5000719;28;20054;-89
2021/09/29 00:52:39;;;;;;;9.30;5.07;;;12.90;90.20;;;;;;5013519;28;20064;-89
2021/09/29 00:55:10;;;;;;;6.13;4.80;;;12.90;90.20;;;;;;5015917;28;20029;-89
2021/09/29 00:57:36;;;;;;;6.15;4.75;;;12.80;90.20;;;;;;5005772;28;20030;-89
2021/09/29 01:00:04;;;;;;;5.75;4.70;;;12.80;90.30;;;;;;5006325;28;20553;-90
2021/09/29 01:02:30;;;;;;;5.57;4.53;;;12.70;90.30;;;;;;5030954;28;20018;-88
2021/09/29 01:04:56;;;;;;;7.97;5.10;;;12.70;90.50;;;;;;5037013;28;20092;-89
2021/09/29 01:07:30;;;;;;;6.97;5.28;;;12.60;90.50;;;;;;5047836;28;20025;-89
2021/09/29 01:10:17;;;;;;;8.73;5.32;;;12.60;90.70;;;;;;5008051;28;20030;-89
2021/09/29 01:12:56;;;;;;;5.90;4.55;;;12.60;90.80;;;;;;5013803;28;20017;-89
2021/09/29 01:15:26;;;;;;;9.55;5.45;;;12.60;90.90;;;;;;5030448;28;20021;-89
2021/09/29 01:17:56;;;;;;;7.55;5.57;;;12.60;90.80;;;;;;5004721;28;20072;-90
2021/09/29 01:20:28;;;;;;;7.35;5.90;;;12.60;90.90;;;;;;5003101;28;20025;-90
2021/09/29 01:23:29;;;;;;;9.05;5.93;;;12.60;91.00;;;;;;4999270;28;20379;-89
2021/09/29 01:25:58;;;;;;;9.75;6.25;;;12.60;91.20;;;;;;5008806;28;20064;-90
2021/09/29 01:28:30;;;;;;;9.88;6.45;;;12.60;91.00;;;;;;5002055;28;20506;-90
2021/09/29 01:31:00;;;;;;;6.57;5.20;;;12.60;91.10;;;;;;5007233;28;20108;-90
2021/09/29 01:33:29;;;;;;;9.52;5.18;;;12.60;91.10;;;;;;4997523;28;20026;-90
2021/09/29 01:35:55;;;;;;;9.30;5.90;;;12.60;91.20;;;;;;4998669;28;20034;-90
2021/09/29 01:38:21;;;;;;;7.53;5.25;;;12.60;91.30;;;;;;5007771;28;20025;-90
2021/09/29 01:40:46;;;;;;;9.18;6.13;;;12.60;91.30;;;;;;5007944;28;20021;-90
2021/09/29 01:43:12;;;;;;;7.13;5.80;;;12.70;91.30;;;;;;5004257;28;20040;-90
2021/09/29 01:45:38;;;;;;;9.80;5.95;;;12.70;91.30;;;;;;5026248;28;20022;-90
2021/09/29 01:48:05;;;;;;;8.85;5.63;;;12.70;91.30;;;;;;4996620;28;20037;-90
2021/09/29 01:50:31;;;;;;;6.22;5.38;;;12.60;91.30;;;;;;5013273;28;20073;-90
2021/09/29 01:52:59;;;;;;;9.60;5.75;;;12.60;91.40;;;;;;5012969;28;20054;-89
2021/09/29 01:55:26;;;;;;;7.65;5.47;;;12.50;91.40;;;;;;5004829;28;20434;-89
2021/09/29 01:57:53;;;;;;;8.80;6.10;;;12.50;91.60;;;;;;5002529;28;20033;-88
2021/09/29 02:00:19;;;;;;;12.63;6.70;;;12.50;91.70;;;;;;4999831;28;20036;-89
2021/09/29 02:02:45;;;;;;;11.65;6.53;;;12.60;91.70;;;;;;5027933;28;20474;-90
2021/09/29 02:05:12;;;;;;;10.52;6.57;;;12.50;91.70;;;;;;5003750;28;20111;-90
2021/09/29 02:07:39;;;;;;;8.60;5.55;;;12.50;91.70;;;;;;5010848;28;20049;-90
2021/09/29 02:10:06;;;;;;;9.02;6.43;;;12.50;91.80;;;;;;5009690;28;20145;-90
2021/09/29 02:12:32;;;;;;;8.77;6.55;;;12.50;91.90;;;;;;4997346;28;20073;-89
2021/09/29 02:14:58;;;;;;;10.13;6.70;;;12.60;92.00;;;;;;5013564;28;20496;-89
2021/09/29 02:17:23;;;;;;;9.55;6.80;;;12.60;92.00;;;;;;4995179;28;20497;-89
2021/09/29 02:19:49;;;;;;;9.05;5.88;;;12.60;91.90;;;;;;5000032;28;20026;-89
2021/09/29 02:22:18;;;;;;;7.97;6.13;;;12.60;92.00;;;;;;5000038;28;20473;-90
2021/09/29 02:24:44;;;;;;;8.32;6.57;;;12.60;92.10;;;;;;4994795;28;20406;-89
2021/09/29 02:27:11;;;;;;;8.02;6.10;;;12.70;92.20;;;;;;5006411;28;20033;-89
2021/09/29 02:29:37;;;;;;;9.43;6.63;;;12.70;92.20;;;;;;5010011;28;20407;-90
2021/09/29 02:32:03;;;;;;;10.07;6.25;;;12.80;92.20;;;;;;5026641;28;20018;-89
2021/09/29 02:34:28;;;;;;;9.52;6.68;;;12.80;92.20;;;;;;5004521;28;20029;-89
2021/09/29 02:36:54;;;;;;;9.82;5.97;;;12.80;92.30;;;;;;5003172;28;20038;-90
2021/09/29 02:39:20;;;;;;;8.70;6.00;;;12.80;92.30;;;;;;5008475;28;20069;-90
2021/09/29 02:41:45;;;;;;;10.68;6.53;;;12.90;92.30;;;;;;5007156;28;20033;-90
2021/09/29 02:44:11;;;;;;;10.88;6.85;;;12.90;92.30;;;;;;4994693;28;20033;-90
2021/09/29 02:46:54;;;;;;;7.97;5.97;;;12.90;92.30;;;;;;4994236;28;20026;-89
2021/09/29 02:49:20;;;;;;;11.57;7.25;;;13.00;92.60;;;;;;5001492;28;20049;-89
2021/09/29 02:51:48;;;;;;;10.80;6.88;;;13.00;92.30;;;;;;5011531;28;20075;-90
2021/09/29 02:54:14;;;;;;;10.57;6.60;;;13.00;92.30;;;;;;5016342;28;20449;-90
2021/09/29 02:56:39;;;;;;;9.75;6.47;;;13.00;92.30;;;;;;4997993;28;20029;-89
2021/09/29 02:59:10;;;;;;;9.38;6.50;;;13.00;92.30;;;;;;5002034;28;20520;-89
2021/09/29 03:01:40;;;;;;;10.18;6.50;;;12.90;92.20;;;;;;5022713;28;20393;-90
2021/09/29 03:04:06;;;;;;;7.72;5.95;;;12.90;92.40;;;;;;5001741;28;20038;-90
2021/09/29 03:06:32;;;;;;;9.52;6.60;;;12.90;92.30;;;;;;5009277;28;20025;-90
2021/09/29 03:09:01;;;;;;;7.03;5.53;;;12.90;92.30;;;;;;5012704;28;20135;-90
2021/09/29 03:11:29;;;;;;;8.05;6.13;;;12.80;92.40;;;;;;5013061;28;20075;-89
2021/09/29 03:13:56;;;;;;;7.15;5.97;;;12.80;92.70;;;;;;5004765;28;20112;-89
2021/09/29 03:16:25;;;;;;;7.38;5.45;;;12.80;92.50;;;;;;5006164;28;20047;-89
2021/09/29 03:18:51;;;;;;;7.47;5.55;;;12.80;92.50;;;;;;5012392;28;20064;-89
2021/09/29 03:21:20;;;;;;;7.68;5.80;;;12.80;92.40;;;;;;5005945;28;20030;-89
2021/09/29 03:23:45;;;;;;;7.57;5.30;;;12.70;92.40;;;;;;4999526;28;20022;-89
2021/09/29 03:26:11;;;;;;;6.28;5.65;;;12.70;92.30;;;;;;4995714;28;20056;-90
2021/09/29 03:28:39;;;;;;;9.32;5.85;;;12.60;92.40;;;;;;5015971;28;20027;-89
2021/09/29 03:31:07;;;;;;;7.88;6.10;;;12.60;92.50;;;;;;5003505;28;20505;-89
2021/09/29 03:33:32;;;;;;;7.85;6.18;;;12.60;92.50;;;;;;5022288;28;20056;-89
2021/09/29 03:36:01;;;;;;;8.02;5.85;;;12.50;92.50;;;;;;5019484;28;20045;-88
2021/09/29 03:38:26;;;;;;;6.78;5.70;;;12.50;92.50;;;;;;5018233;28;20040;-89
2021/09/29 03:40:52;;;;;;;8.68;6.18;;;12.50;92.60;;;;;;5035880;28;20032;-89
2021/09/29 03:43:20;;;;;;;10.65;5.70;;;12.40;92.60;;;;;;4998814;28;20105;-90
2021/09/29 03:45:53;;;;;;;7.13;5.90;;;12.40;92.70;;;;;;4996107;28;20022;-89
2021/09/29 03:48:22;;;;;;;9.50;6.28;;;12.40;92.80;;;;;;5005739;28;20033;-90
2021/09/29 03:51:00;;;;;;;7.57;6.10;;;12.50;92.90;;;;;;4992420;28;20057;-90
2021/09/29 03:53:34;;;;;;;9.27;6.40;;;12.50;92.90;;;;;;4995079;28;20107;-90
2021/09/29 03:56:28;;;;;;;9.70;6.43;;;12.40;92.80;;;;;;4997114;28;20125;-90
2021/09/29 03:59:30;;;;;;;9.27;6.47;;;12.50;93.00;;;;;;4995378;28;20125;-90
2021/09/29 04:02:00;;;;;;;7.97;6.40;;;12.50;93.00;;;;;;5005107;28;20033;-89
2021/09/29 04:04:26;;;;;;;11.82;7.18;;;12.40;92.80;;;;;;5002322;28;20041;-89
2021/09/29 04:06:52;;;;;;;10.18;7.40;;;12.40;92.80;;;;;;5010679;28;20060;-90
2021/09/29 04:09:26;;;;;;;8.30;6.85;;;12.40;92.90;;;;;;5018933;28;20029;-90
2021/09/29 04:12:02;;;;;;;10.40;6.72;;;12.40;93.00;;;;;;5000090;28;20018;-90
2021/09/29 04:14:33;;;;;;;7.80;7.00;;;12.40;93.00;;;;;;5010229;28;20117;-90
2021/09/29 04:17:01;;;;;;;12.95;7.50;;;12.30;93.00;;;;;;5005696;28;20072;-89
2021/09/29 04:19:51;;;;;;;8.65;6.88;;;12.30;93.10;;;;;;5014583;28;20041;-90
2021/09/29 04:22:16;;;;;;;8.68;6.78;;;12.30;93.10;;;;;;5029380;28;20126;-89
2021/09/29 04:24:47;;;;;;;9.63;6.88;;;12.40;93.10;;;;;;5018092;28;20030;-90
2021/09/29 04:27:16;;;;;;;11.85;6.78;;;12.40;93.20;;;;;;5002907;28;20668;-90
2021/09/29 04:29:42;;;;;;;9.60;6.55;;;12.40;93.20;;;;;;5007852;28;20509;-89
2021/09/29 04:32:15;;;;;;;7.90;6.38;;;12.40;93.20;;;;;;5015355;28;20009;-88
2021/09/29 04:34:44;;;;;;;9.23;6.55;;;12.40;93.30;;;;;;5034711;28;20018;-88
2021/09/29 04:37:09;;;;;;;10.70;7.68;;;12.50;93.20;;;;;;5028550;28;20051;-88
2021/09/29 04:39:37;;;;;;;9.23;6.95;;;12.50;93.30;;;;;;5010357;28;20057;-89
2021/09/29 04:42:03;;;;;;;9.10;6.85;;;12.50;93.30;;;;;;5002192;28;20022;-89
2021/09/29 04:44:29;;;;;;;11.38;6.60;;;12.50;93.30;;;;;;5005939;28;20026;-90
2021/09/29 04:46:56;;;;;;;11.35;7.55;;;12.60;93.30;;;;;;4999954;28;20041;-90
2021/09/29 07:17:06;;;;;;;4.60;3.72;;;15.30;91.40;;;;;;5001561;28;20088;-91
2021/09/29 07:19:39;;;;;;;5.88;3.15;;;15.90;90.70;;;;;;4994981;28;20022;-88
2021/09/29 07:22:15;;;;;;;6.95;3.10;;;16.40;90.10;;;;;;5002666;28;20094;-90
2021/09/29 07:24:56;;;;;;;7.10;2.72;;;16.50;90.00;;;;;;4991285;28;20610;-90
2021/09/29 07:30:30;;;;;;;6.90;2.90;;;17.40;88.40;;;;;;5002046;28;20097;-90
2021/09/29 07:33:02;;;;;;;2.85;2.40;;;17.70;87.60;;;;;;4985609;28;20081;-89
2021/09/29 07:35:37;;;;;;;2.13;1.97;;;18.00;86.30;;;;;;4985483;28;20026;-89
2021/09/29 07:38:03;;;;;;;3.95;2.15;;;18.10;85.90;;;;;;4991832;28;20339;-90
2021/09/29 07:40:29;;;;;;;2.63;1.80;;;18.10;86.30;;;;;;4990439;28;20036;-90
2021/09/29 07:42:56;;;;;;;4.45;2.15;;;18.40;85.50;;;;;;4992903;28;20027;-90
2021/09/29 07:45:26;;;;;;;3.97;1.75;;;18.80;84.40;;;;;;4984538;28;20110;-90
2021/09/29 07:47:53;;;;;;;4.20;1.70;;;19.10;83.30;;;;;;4992750;28;20022;-90
2021/09/29 07:50:19;;;;;;;5.22;1.77;;;19.20;82.20;;;;;;4994375;28;20417;-91
2021/09/29 07:52:49;;;;;;;2.83;1.77;;;19.30;81.50;;;;;;5004622;28;20386;-91
2021/09/29 07:55:15;;;;;;;4.13;1.65;;;19.20;81.50;;;;;;4991097;28;20034;-90
2021/09/29 07:57:46;;;;;;;5.07;1.63;;;19.50;80.90;;;;;;4981451;28;20026;-90
2021/09/29 08:00:19;;;;;;;2.55;1.40;;;19.60;79.70;;;;;;4982987;28;20030;-91
2021/09/29 08:03:14;;;;;;;2.15;1.50;;;19.70;79.40;;;;;;4981516;28;20436;-91
2021/09/29 08:09:22;;;;;;;1.70;1.08;;;19.60;79.00;;;;;;4925080;29;20526;-91
2021/09/29 08:12:10;;;;;;;3.83;1.30;;;19.30;79.30;;;;;;4935418;29;20036;-90
2021/09/29 09:18:05;;;;;;;;;;;;;;;;;;;;;
2021/09/29 09:21:08;;;;;;;3.63;0.63;;;17.90;76.30;;;;;;4990879;28;20040;-91
2021/09/29 09:24:05;;;;;;;0.98;0.57;;;18.00;76.10;;;;;;5010684;28;20030;-91
2021/09/29 09:26:36;;;;;;;1.98;0.60;;;18.10;76.10;;;;;;4989040;28;20049;-90
2021/09/29 09:29:31;;;;;;;2.60;0.68;;;18.30;76.20;;;;;;5011482;28;20042;-89
2021/09/29 09:32:42;;;;;;;7.05;3.58;;;18.40;75.10;;;;;;4997756;28;20041;-90
2021/09/29 09:46:35;;;;;;;4.80;0.90;;;18.70;74.30;;;;;;4909213;29;20067;-91
2021/09/29 09:48:49;;;;;;;3.20;0.70;;;18.90;74.10;;;;;;4921123;29;20035;-90
2021/09/29 09:54:56;;;;;;;4.43;0.65;;;19.10;72.40;;;;;;5001289;28;20025;-91
2021/09/29 09:57:56;;;;;;;1.90;0.70;;;19.00;71.70;;;;;;4996440;28;20052;-90
2021/09/29 10:01:11;;;;;;;2.72;0.90;;;19.10;72.20;;;;;;4995091;28;20032;-91
2021/09/29 10:07:55;;;;;;;3.35;0.63;;;19.20;71.50;;;;;;4904762;28;20123;-91
2021/09/29 10:23:50;;;;;;;;;;;;;;;;;;;;;
2021/09/29 10:30:04;;;;;;;3.22;0.70;;;18.70;70.10;;;;;;5022404;28;20090;-88
2021/09/29 10:32:51;;;;;;;4.07;0.70;;;18.70;69.80;;;;;;5008238;28;20052;-91
2021/09/29 10:36:01;;;;;;;2.80;0.82;;;18.60;69.60;;;;;;4984879;28;20122;-90
2021/09/29 12:09:02;;;;;;;;;;;;;;;;;;;;;
2021/09/29 12:12:03;;;;;;;1.55;0.50;;;19.70;70.70;;;;;;4933950;28;20109;-90
2021/09/29 12:14:56;;;;;;;1.77;0.80;;;20.00;70.60;;;;;;4996106;28;20491;-91
2021/09/29 12:18:07;;;;;;;4.55;0.70;;;20.30;69.80;;;;;;4992736;28;20033;-91
2021/09/29 12:20:57;;;;;;;1.85;0.55;;;20.50;69.10;;;;;;4945648;28;20117;-91
2021/09/29 12:23:58;;;;;;;2.97;0.68;;;20.60;68.70;;;;;;4997412;28;20021;-91
2021/09/29 12:29:48;;;;;;;;;;;;;;;;;;;;;
2021/09/29 12:32:52;;;;;;;2.30;0.55;;;19.90;68.40;;;;;;5012459;28;20113;-90
2021/09/29 12:35:47;;;;;;;3.40;0.52;;;19.70;68.60;;;;;;4984857;28;20085;-90
2021/09/29 12:38:42;;;;;;;4.75;0.65;;;19.60;69.10;;;;;;4997324;28;20417;-90
2021/09/29 12:41:29;;;;;;;;;;;;;;;;;;;;;
2021/09/29 12:44:33;;;;;;;;;;;;;;;;;;;;;
2021/09/29 12:50:28;;;;;;;2.05;0.40;;;19.10;69.30;;;;;;5011213;28;20094;-91
2021/09/29 12:56:00;;;;;;;2.78;0.50;;;18.90;69.70;;;;;;5020692;28;20025;-90
2021/09/29 12:58:36;;;;;;;2.42;0.65;;;18.80;70.00;;;;;;5000243;28;20022;-92
2021/09/29 13:01:22;;;;;;;6.90;0.98;;;18.80;70.00;;;;;;5003219;28;20057;-92
2021/09/29 13:04:23;;;;;;;5.32;1.00;;;18.70;69.90;;;;;;5002272;28;20021;-91
2021/09/29 13:37:54;;;;;;;4.55;0.60;;;18.20;72.30;;;;;;5025139;26;20026;-90
2021/09/29 13:40:49;;;;;;;3.88;0.60;;;18.10;73.20;;;;;;5011683;28;20129;-90
2021/09/29 13:43:44;;;;;;;4.38;0.55;;;18.00;74.10;;;;;;4984077;28;20045;-92
2021/09/29 13:46:33;;;;;;;1.80;0.38;;;18.00;75.60;;;;;;4988414;28;20042;-91
2021/09/29 13:49:23;;;;;;;1.55;0.52;;;18.30;76.90;;;;;;4993446;28;20038;-92
2021/09/29 14:30:49;;;;;;;1.65;0.30;;;16.10;79.70;;;;;;5007142;28;20073;-92
2021/09/29 14:33:44;;;;;;;0.20;0.20;;;15.80;80.20;;;;;;4994105;28;20042;-92
2021/09/29 14:36:16;;;;;;;0.30;0.30;;;15.50;80.70;;;;;;4992821;28;20038;-92
2021/09/29 14:38:57;;;;;;;0.70;0.30;;;15.10;80.80;;;;;;4999572;28;20117;-92
2021/09/29 14:41:32;;;;;;;0.77;0.30;;;14.90;81.70;;;;;;4989183;28;20030;-91
2021/09/29 14:44:02;;;;;;;0.57;0.30;;;14.70;82.30;;;;;;5000761;28;20025;-91
2021/09/29 14:46:41;;;;;;;1.08;0.35;;;14.50;82.30;;;;;;4976074;28;20032;-92
2021/09/29 14:49:35;;;;;;;0.38;0.20;;;14.40;82.90;;;;;;4992583;28;20030;-92
2021/09/29 14:55:07;;;;;;;0.20;0.20;;;14.00;83.30;;;;;;4998112;28;20475;-92
2021/09/29 14:58:01;;;;;;;0.98;0.30;;;13.90;83.50;;;;;;4991439;28;20114;-92
2021/09/29 15:00:50;;;;;;;1.17;0.40;;;13.80;84.30;;;;;;4993635;28;20042;-92
2021/09/29 15:03:40;;;;;;;0.10;0.10;;;13.70;84.50;;;;;;4964057;28;20233;-92
2021/09/29 15:06:17;;;;;;;1.00;0.68;;;13.60;85.20;;;;;;4994401;28;20037;-93
2021/09/29 15:08:53;;;;;;;0.52;0.40;;;13.60;85.10;;;;;;4993365;28;20026;-92
2021/09/29 15:18:13;;;;;;;0.43;0.30;;;13.60;85.60;;;;;;5003842;28;20083;-91
2021/09/29 15:24:05;;;;;;;0.45;0.22;;;13.60;86.10;;;;;;5007728;28;20025;-91
2021/09/29 16:32:03;;;;;;;1.63;0.47;;;13.10;89.40;;;;;;4987818;28;20112;-94
2021/09/29 16:35:23;;;;;;;0.30;0.30;;;13.10;89.40;;;;;;4960715;28;20038;-90
2021/09/29 16:37:56;;;;;;;0.73;0.40;;;13.00;89.70;;;;;;4978872;28;20398;-93
2021/09/29 16:40:22;;;;;;;0.73;0.40;;;13.10;89.80;;;;;;4970802;28;20023;-92
2021/09/29 16:42:52;;;;;;;1.85;0.40;;;13.10;89.70;;;;;;4966350;28;20113;-92
2021/09/29 16:45:21;;;;;;;1.00;0.40;;;13.10;89.90;;;;;;4967951;28;20031;-90
2021/09/29 16:47:48;;;;;;;0.95;0.40;;;13.10;90.00;;;;;;4962224;28;20018;-92
2021/09/29 16:50:15;;;;;;;1.55;0.50;;;13.10;90.00;;;;;;5024049;22;20074;-90
2021/09/29 16:52:44;;;;;;;1.00;0.52;;;13.10;90.10;;;;;;5032112;28;20068;-91
2021/09/29 16:55:16;;;;;;;2.38;0.70;;;13.00;90.10;;;;;;5011909;28;20053;-91
2021/09/29 16:57:51;;;;;;;0.93;0.57;;;13.00;90.10;;;;;;5013683;28;20017;-90
2021/09/29 17:00:27;;;;;;;1.27;0.80;;;12.90;90.10;;;;;;5015580;28;20096;-90
2021/09/29 17:03:04;;;;;;;3.90;0.68;;;12.90;90.30;;;;;;5014383;28;20032;-90
2021/09/29 17:05:38;;;;;;;1.63;0.80;;;12.90;90.40;;;;;;5016291;28;20072;-92
2021/09/29 17:08:18;;;;;;;;;;;;;;;;;;;;;
2021/09/29 17:10:44;;;;;;;3.45;1.98;;;12.80;90.50;;;;;;5030188;28;20064;-91
2021/09/29 17:13:13;;;;;;;1.45;1.35;;;12.80;90.50;;;;;;5015833;28;20124;-91
2021/09/29 17:15:42;;;;;;;3.00;1.67;;;12.80;90.60;;;;;;5016625;28;20033;-90
2021/09/29 17:18:07;;;;;;;2.22;2.00;;;12.80;90.70;;;;;;5016006;28;20393;-91
2021/09/29 17:20:43;;;;;;;2.33;1.63;;;12.70;90.70;;;;;;5012330;28;20112;-90
2021/09/29 17:23:17;;;;;;;2.53;1.63;;;12.70;90.90;;;;;;5001862;28;20032;-92
2021/09/29 17:25:46;;;;;;;0.95;0.95;;;12.70;91.00;;;;;;5008927;28;20133;-93
2021/09/29 17:28:32;;;;;;;2.03;1.80;;;12.70;91.00;;;;;;5007100;28;20030;-90
2021/09/29 17:31:04;;;;;;;1.60;1.00;;;12.60;91.10;;;;;;5028921;28;20053;-89
2021/09/29 17:34:01;;;;;;;3.13;1.98;;;12.60;91.10;;;;;;5014619;28;20029;-90
2021/09/29 17:54:40;;;;;;;5.93;1.10;;;12.60;91.30;;;;;;5021850;28;20117;-89
2021/09/29 17:57:14;;;;;;;2.55;0.70;;;12.70;91.30;;;;;;5009589;28;20120;-90
2021/09/29 17:59:59;;;;;;;1.83;1.67;;;12.60;91.40;;;;;;5001596;28;20342;-89
2021/09/29 18:02:54;;;;;;;2.10;0.80;;;12.70;91.50;;;;;;5005688;28;20033;-90
2021/09/29 18:05:51;;;;;;;0.93;0.82;;;12.60;91.50;;;;;;4993416;28;20038;-89
2021/09/29 18:08:49;;;;;;;1.15;0.88;;;12.60;91.50;;;;;;5007938;28;20041;-89
2021/09/29 18:11:33;;;;;;;;;;;;;;;;;;;;;
2021/09/29 18:14:05;;;;;;;2.05;0.90;;;12.60;91.50;;;;;;5028058;28;20032;-89
2021/09/29 18:16:51;;;;;;;0.85;0.80;;;12.60;91.40;;;;;;5009781;28;20109;-89
2021/09/29 18:19:32;;;;;;;1.13;0.90;;;12.60;91.50;;;;;;5010880;28;20034;-89
2021/09/29 18:22:05;;;;;;;0.70;0.70;;;12.60;91.60;;;;;;5012420;28;20102;-88
2021/09/29 18:24:45;;;;;;;1.25;0.82;;;12.60;91.50;;;;;;5010259;28;20489;-90
2021/09/29 18:27:24;;;;;;;1.58;0.80;;;12.60;91.50;;;;;;5009623;28;20052;-89
2021/09/29 18:30:05;;;;;;;2.70;0.85;;;12.60;91.60;;;;;;5010476;28;20040;-89
2021/09/29 18:32:39;;;;;;;2.42;0.63;;;12.60;91.60;;;;;;5008843;28;20045;-89
2021/09/29 18:35:13;;;;;;;1.15;0.93;;;12.60;91.60;;;;;;4995668;28;20180;-89
2021/09/29 18:37:55;;;;;;;3.47;0.80;;;12.50;91.50;;;;;;5011496;28;20034;-89
2021/09/29 18:40:41;;;;;;;1.75;0.85;;;12.50;91.60;;;;;;5009258;28;20072;-89
2021/09/29 18:43:29;;;;;;;;;;;;;;;;;;;;;
2021/09/29 18:46:15;;;;;;;;;;;;;;;;;;;;;
2021/09/29 18:49:19;;;;;;;0.90;0.60;;;12.60;91.60;;;;;;5052679;28;20290;-88
2021/09/29 18:52:01;;;;;;;1.08;0.60;;;12.60;91.70;;;;;;5006227;28;20038;-88
2021/09/29 18:54:52;;;;;;;2.15;0.50;;;12.60;91.60;;;;;;5004042;28;20059;-89
2021/09/29 19:08:59;;;;;;;1.20;0.60;;;12.40;91.30;;;;;;5024935;28;20091;-89
2021/09/29 19:11:39;;;;;;;2.42;1.40;;;12.30;91.20;;;;;;5000468;28;20034;-89
2021/09/29 19:14:05;;;;;;;0.63;0.40;;;12.20;91.10;;;;;;5007500;28;20116;-89
2021/09/29 19:17:01;;;;;;;1.08;0.43;;;12.10;91.20;;;;;;5009140;28;20045;-89
2021/09/29 19:20:09;;;;;;;0.43;0.43;;;12.00;91.20;;;;;;5003927;28;20609;-89
2021/09/29 19:23:12;;;;;;;1.98;0.55;;;11.90;91.40;;;;;;5003866;28;20107;-89
2021/09/29 19:25:50;;;;;;;0.70;0.40;;;11.80;91.40;;;;;;5000168;28;20041;-89
2021/09/29 19:28:31;;;;;;;0.60;0.50;;;11.80;91.50;;;;;;5002127;28;20029;-89
2021/09/29 19:34:13;;;;;;;0.75;0.60;;;11.70;91.60;;;;;;5018840;28;20037;-89
2021/09/29 19:36:58;;;;;;;3.08;0.60;;;11.80;91.50;;;;;;5013768;28;20033;-89
2021/09/29 19:39:31;;;;;;;0.57;0.52;;;11.70;91.60;;;;;;5008686;28;20529;-89
2021/09/29 19:42:25;;;;;;;;;;;;;;;;;;;;;
2021/09/29 19:45:01;;;;;;;;;;;;;;;;;;;;;
2021/09/29 20:09:49;;;;;;;1.33;0.60;;;11.50;91.60;;;;;;4941004;29;20119;-92
2021/09/29 20:12:42;;;;;;;2.20;0.70;;;11.50;91.60;;;;;;5014862;28;20029;-92
2021/09/29 20:19:49;;;;;;;1.88;1.00;;;11.50;91.80;;;;;;5027614;28;20048;-91
2021/09/29 20:29:19;;;;;;;0.98;0.60;;;11.50;91.90;;;;;;5014211;28;20033;-91
2021/09/29 20:32:01;;;;;;;0.98;0.60;;;11.50;91.70;;;;;;4998826;28;20037;-92
2021/09/29 20:45:33;;;;;;;1.13;0.70;;;11.40;91.90;;;;;;5036728;28;20036;-92
2021/09/29 20:51:55;;;;;;;2.88;1.40;;;11.30;91.90;;;;;;5026383;28;20524;-92
2021/09/29 20:55:18;;;;;;;2.65;1.20;;;11.20;91.90;;;;;;5004529;28;20038;-92
2021/09/29 21:10:49;;;;;;;1.67;0.90;;;11.20;92.20;;;;;;5034918;28;20103;-92
2021/09/29 21:13:16;;;;;;;3.17;1.08;;;11.10;92.20;;;;;;5025146;28;20028;-91
2021/09/29 21:18:38;;;;;;;0.73;0.73;;;11.10;92.30;;;;;;5026830;28;20037;-91
2021/09/29 21:21:11;;;;;;;1.52;0.82;;;11.10;92.30;;;;;;5028828;28;20029;-91
2021/09/29 21:23:40;;;;;;;2.08;0.88;;;11.00;92.30;;;;;;5017193;28;20025;-91
2021/09/29 21:26:34;;;;;;;1.52;0.80;;;11.00;92.30;;;;;;5016504;28;20026;-91
2021/09/29 21:29:41;;;;;;;1.33;1.13;;;11.10;92.50;;;;;;4999276;28;20030;-90
2021/09/29 21:35:43;;;;;;;1.23;1.00;;;11.00;92.30;;;;;;5017054;28;20021;-91
2021/09/29 21:42:15;;;;;;;;;;;;;;;;;;;;;
